SLTJ

Details ICAO SLTJ (TJA)
Name CAPITAN ORIEL LEA PLAZA
Region Bolivia
Timezone America/La_Paz (UTC-4.0)
Plans Departing 7
Arriving 9
Stats Elevation 6,084 ft / 1,854 m (AMSL)
Location -21.555737° -64.701326°
Runways 1
Magnetic Variation 9.400° W
Sunrise 2017-12-17 09:33:06 UTC / 2017-12-17 05:33:06 Local
Sunset 2017-12-17 22:59:39 UTC / 2017-12-17 18:59:39 Local
Advertisement - Login to hide

Runways

ID Width Length Bearing (true) Bearing (mag) Surface Threshold Offset Overrun Length
13 148 ft / 45 m 9,970 ft / 3,039 m 124.42° 133.82° Asphalt 0 ft / 0 m 0 ft / 0 m
31 148 ft / 45 m 9,970 ft / 3,039 m 304.41° 313.81° Asphalt 0 ft / 0 m 0 ft / 0 m

Map

Weather


0- 5 10 15 20 25 30 35+ Temperature / ° C

Clouds and Precipitation
Forecast for 2017-12-17 18:00 UTC. Updated an hour ago

Ground ~20,000 ft ~40,000 ft Winds

METAR

SLTJ 171800Z 14015G25KT 9999 FEW036 FEW040CB SCT200 32/13 Q1016

TAF

TAF SLTJ 171000Z 1712/1812 00000KT 9999 NSC TX35/1719Z TN16/1810Z BECMG 1714/1716 14012KT FEW030 TEMPO 1720/1723 12015G25KT TSRA SCT033 FEW036CB SCT070 BECMG 1723/1801 14008KT SCT027 BKN070

Frequencies

Tower 118.10 MHz TARIJA TWR
Approach 119.40 MHz TARIJA APP
Warning: Do not use this data for real-world aviation or navigation. No guarantee of current accuracy is given.